Time;durP1;ratioP1;P1;durP2;ratioP2;P2;SDS_P1;SDS_P2;PMS_P1;PMS_P2;Temp;Humidity;BMP_temperature;BMP_pressure;BME280_temperature;BME280_humidity;BME280_pressure;Samples;Min_cycle;Max_cycle;Signal;HPM_P1;HPM_P2
2023/12/27 00:00:06;;;;;;;6.13;2.20;;;;;;;7.52;54.87;101565.09;687778;28;1107;-88
2023/12/27 00:00:28;;;;;;;10.40;2.05;;;;;;;7.49;54.55;101565.81;685283;28;855;-87
2023/12/27 00:00:49;;;;;;;9.85;1.80;;;;;;;7.55;54.71;101578.22;682611;28;1474;-87
2023/12/27 00:01:10;;;;;;;5.95;1.80;;;;;;;7.50;54.72;101566.72;685153;28;1012;-87
2023/12/27 00:01:31;;;;;;;2.57;2.00;;;;;;;7.51;54.61;101565.91;688133;28;808;-87
2023/12/27 00:01:51;;;;;;;2.23;1.90;;;;;;;7.49;54.77;101564.94;690288;28;1556;-87
2023/12/27 00:02:12;;;;;;;2.43;1.90;;;;;;;7.53;54.76;101569.47;687483;28;1406;-86
2023/12/27 00:02:32;;;;;;;3.33;2.10;;;;;;;7.53;54.56;101566.88;690320;28;752;-87
2023/12/27 00:02:53;;;;;;;3.13;2.17;;;;;;;7.60;54.63;101579.38;690221;28;1526;-87
2023/12/27 00:03:14;;;;;;;4.53;2.10;;;;;;;7.53;54.64;101561.66;693112;28;1455;-87
2023/12/27 00:03:35;;;;;;;4.80;2.30;;;;;;;7.57;54.58;101574.03;690667;28;872;-87
2023/12/27 00:03:56;;;;;;;6.90;2.57;;;;;;;7.57;54.65;101571.44;690047;28;1618;-87
2023/12/27 00:04:18;;;;;;;6.00;2.70;;;;;;;7.56;54.83;101569.66;690535;28;1142;-87
2023/12/27 00:04:39;;;;;;;3.88;2.13;;;;;;;7.54;54.53;101566.03;690173;28;1371;-87
2023/12/27 00:04:59;;;;;;;2.78;2.20;;;;;;;7.54;54.35;101568.66;685017;28;1598;-87
2023/12/27 00:05:20;;;;;;;2.40;2.10;;;;;;;7.54;54.60;101569.56;685344;28;1237;-88
2023/12/27 00:05:49;;;;;;;4.30;2.33;;;;;;;7.64;54.76;101583.94;691757;28;1517;-87
2023/12/27 00:06:09;;;;;;;4.10;2.20;;;;;;;7.66;54.63;101577.09;690209;28;1254;-87
2023/12/27 00:06:30;;;;;;;5.00;2.40;;;;;;;7.60;54.86;101574.16;690668;28;1678;-87
2023/12/27 00:06:52;;;;;;;5.18;2.30;;;;;;;7.58;54.55;101570.59;687596;28;1571;-86
2023/12/27 00:07:13;;;;;;;5.22;2.47;;;;;;;7.60;54.37;101568.97;687739;28;1910;-87
2023/12/27 00:07:34;;;;;;;5.85;2.50;;;;;;;7.64;54.39;101575.22;680007;29;1189;-87
2023/12/27 00:07:54;;;;;;;3.70;2.13;;;;;;;7.56;54.25;101572.25;685192;28;1381;-87
2023/12/27 00:08:15;;;;;;;3.60;2.10;;;;;;;7.61;54.72;101570.75;687584;28;1851;-87
2023/12/27 00:08:36;;;;;;;2.97;2.00;;;;;;;7.59;54.18;101572.38;690675;28;867;-88
2023/12/27 00:08:57;;;;;;;4.47;2.30;;;;;;;7.56;54.18;101566.13;690155;28;1500;-88
2023/12/27 00:09:17;;;;;;;4.15;2.20;;;;;;;7.53;54.31;101565.16;690375;28;1221;-87
2023/12/27 00:09:38;;;;;;;7.43;2.40;;;;;;;7.52;54.88;101560.78;690693;28;845;-87
2023/12/27 00:09:58;;;;;;;6.50;2.40;;;;;;;7.50;54.48;101566.72;692684;28;1567;-87
2023/12/27 00:10:19;;;;;;;6.70;2.57;;;;;;;7.55;54.44;101565.22;684542;28;1450;-87
2023/12/27 00:10:40;;;;;;;3.80;2.55;;;;;;;7.47;54.25;101562.25;686757;28;1308;-87
2023/12/27 00:11:00;;;;;;;5.20;2.80;;;;;;;7.50;54.44;101566.72;692964;28;1475;-87
2023/12/27 00:11:21;;;;;;;5.40;2.77;;;;;;;7.44;54.60;101553.38;692120;28;1607;-87
2023/12/27 00:11:42;;;;;;;5.40;2.80;;;;;;;7.52;54.68;101575.47;690130;28;1473;-87
2023/12/27 00:12:02;;;;;;;4.82;2.80;;;;;;;7.44;54.35;101553.38;685033;28;1190;-87
2023/12/27 00:12:23;;;;;;;4.40;2.70;;;;;;;7.46;54.52;101559.56;683150;28;1714;-87
2023/12/27 00:12:44;;;;;;;3.83;2.67;;;;;;;7.45;54.60;101565.56;685176;28;1609;-87
2023/12/27 00:13:04;;;;;;;3.20;2.47;;;;;;;7.40;54.52;101555.84;685165;28;1176;-87
2023/12/27 00:13:25;;;;;;;4.33;3.10;;;;;;;7.42;54.59;101562.81;690403;28;1179;-87
2023/12/27 00:13:46;;;;;;;5.50;3.10;;;;;;;7.43;54.72;101564.59;688223;28;1458;-86
2023/12/27 00:14:06;;;;;;;5.35;2.97;;;;;;;7.39;54.76;101553.16;687744;28;1349;-87
2023/12/27 00:14:27;;;;;;;5.47;2.50;;;;;;;7.40;54.25;101561.03;687237;28;1461;-87
2023/12/27 00:14:47;;;;;;;3.80;2.27;;;;;;;7.42;54.92;101555.03;688787;28;1514;-87
2023/12/27 00:15:08;;;;;;;4.00;2.35;;;;;;;7.44;54.88;101555.97;691714;28;1027;-87
2023/12/27 00:15:29;;;;;;;2.80;2.20;;;;;;;7.47;54.52;101567.44;693493;28;714;-87
2023/12/27 00:15:50;;;;;;;3.80;2.60;;;;;;;7.47;54.83;101554.44;689133;28;1455;-87
2023/12/27 00:16:10;;;;;;;4.03;2.63;;;;;;;7.47;54.76;101553.53;687598;28;1177;-87
2023/12/27 00:16:31;;;;;;;6.25;3.05;;;;;;;7.54;54.97;101569.56;687901;28;1067;-87
2023/12/27 00:16:52;;;;;;;7.18;2.90;;;;;;;7.55;55.01;101570.44;686149;28;1574;-87
2023/12/27 00:17:12;;;;;;;6.68;2.60;;;;;;;7.48;54.63;101551.03;685165;28;1052;-87
2023/12/27 00:17:34;;;;;;;4.43;2.40;;;;;;;7.54;54.50;101558.25;687835;28;1198;-87
2023/12/27 00:17:54;;;;;;;2.80;2.38;;;;;;;7.62;54.90;101571.66;687588;28;1928;-87
2023/12/27 00:18:18;;;;;;;4.18;2.42;;;;;;;7.67;54.76;101575.38;690495;28;1203;-87
2023/12/27 00:18:41;;;;;;;3.97;2.20;;;;;;;7.63;54.79;101568.25;685250;28;1300;-87
2023/12/27 00:19:08;;;;;;;3.33;1.90;;;;;;;7.62;54.71;101566.47;689487;28;1206;-88
2023/12/27 00:19:30;;;;;;;5.53;2.00;;;;;;;7.68;54.79;101569.41;693621;28;1154;-88
2023/12/27 00:19:53;;;;;;;7.10;2.63;;;;;;;7.68;54.66;101570.28;691416;28;1559;-87
2023/12/27 00:20:14;;;;;;;3.70;2.63;;;;;;;7.72;54.66;101575.63;687705;28;1225;-87
2023/12/27 00:20:35;;;;;;;4.47;2.72;;;;;;;7.68;54.81;101562.47;687942;28;1188;-87
2023/12/27 00:20:55;;;;;;;2.95;2.17;;;;;;;7.65;54.46;101564.03;689477;28;1528;-88
2023/12/27 00:21:16;;;;;;;2.87;2.03;;;;;;;7.70;54.84;101570.38;685117;28;1314;-88
2023/12/27 00:21:36;;;;;;;3.00;2.25;;;;;;;7.66;54.52;101569.31;685328;28;873;-87
2023/12/27 00:21:57;;;;;;;3.60;2.55;;;;;;;7.75;54.81;101583.59;687926;28;1495;-87
2023/12/27 00:22:17;;;;;;;4.20;2.83;;;;;;;7.66;54.79;101564.13;689025;28;1307;-87
2023/12/27 00:22:38;;;;;;;4.63;2.60;;;;;;;7.65;54.85;101566.63;682535;29;1012;-87
2023/12/27 00:22:59;;;;;;;5.90;2.90;;;;;;;7.65;54.65;101564.03;687159;28;1471;-87
2023/12/27 00:23:19;;;;;;;5.25;2.92;;;;;;;7.62;54.42;101556.06;687874;28;1150;-87
2023/12/27 00:23:40;;;;;;;4.95;2.95;;;;;;;7.61;54.52;101555.16;687796;28;1263;-87
2023/12/27 00:24:00;;;;;;;4.17;2.83;;;;;;;7.68;54.81;101572.00;687395;28;1592;-88
2023/12/27 00:24:21;;;;;;;10.70;3.10;;;;;;;7.66;54.50;101569.31;690526;28;1753;-87
2023/12/27 00:24:42;;;;;;;10.77;2.95;;;;;;;7.68;54.56;101572.88;692988;28;1512;-86
2023/12/27 00:25:03;;;;;;;10.47;2.70;;;;;;;7.67;54.57;101559.78;690432;28;1101;-88
2023/12/27 00:25:23;;;;;;;4.97;2.45;;;;;;;7.63;54.42;101566.53;685259;28;1290;-87
2023/12/27 00:25:44;;;;;;;6.77;2.80;;;;;;;7.65;54.87;101559.72;682819;28;1492;-87
2023/12/27 00:26:05;;;;;;;5.40;2.65;;;;;;;7.69;55.07;101571.19;685066;28;1326;-87
2023/12/27 00:26:26;;;;;;;4.65;2.75;;;;;;;7.70;54.72;101574.66;685147;28;784;-88
2023/12/27 00:26:52;;;;;;;7.70;2.60;;;;;;;7.64;54.87;101565.75;685063;28;1591;-86
2023/12/27 00:27:13;;;;;;;7.70;2.60;;;;;;;7.63;54.75;101566.53;687495;28;1910;-88
2023/12/27 00:27:33;;;;;;;7.50;2.30;;;;;;;7.65;54.63;101569.22;688034;28;748;-87
2023/12/27 00:27:57;;;;;;;2.70;2.25;;;;;;;7.70;54.50;101579.84;687546;28;1556;-87
2023/12/27 00:28:19;;;;;;;3.50;2.33;;;;;;;7.61;54.52;101562.97;687813;28;988;-87
2023/12/27 00:28:39;;;;;;;5.10;2.90;;;;;;;7.63;55.08;101574.31;682484;28;1325;-87
2023/12/27 00:29:00;;;;;;;4.70;3.00;;;;;;;7.64;54.71;101570.94;687534;28;1501;-87
2023/12/27 00:29:22;;;;;;;5.25;3.25;;;;;;;7.61;54.47;101570.75;687996;28;832;-87
2023/12/27 00:29:42;;;;;;;4.77;2.93;;;;;;;7.61;54.52;101564.69;690336;28;1659;-87
2023/12/27 00:30:04;;;;;;;5.90;2.60;;;;;;;7.59;54.83;101562.00;685041;28;1147;-87
2023/12/27 00:30:24;;;;;;;4.90;2.35;;;;;;;7.64;55.05;101583.94;685756;28;1436;-88
2023/12/27 00:30:48;;;;;;;5.53;2.40;;;;;;;7.69;54.54;101578.97;688036;28;1597;-87
2023/12/27 00:31:09;;;;;;;5.45;2.60;;;;;;;7.62;54.55;101562.16;687705;28;1158;-87
2023/12/27 00:31:30;;;;;;;10.80;2.57;;;;;;;7.62;54.45;101559.56;687948;28;1251;-87
2023/12/27 00:31:50;;;;;;;11.27;2.78;;;;;;;7.71;54.93;101576.44;687727;28;1527;-88
2023/12/27 00:32:11;;;;;;;9.73;2.60;;;;;;;7.63;54.03;101558.72;687802;28;995;-87
2023/12/27 00:32:32;;;;;;;4.00;2.60;;;;;;;7.58;54.52;101544.63;690174;28;1110;-87
2023/12/27 00:32:53;;;;;;;2.80;2.45;;;;;;;7.58;54.46;101555.03;684891;28;1450;-87
2023/12/27 00:33:13;;;;;;;3.07;2.40;;;;;;;7.56;54.68;101547.97;690365;28;1162;-87
2023/12/27 00:33:34;;;;;;;3.45;2.42;;;;;;;7.62;54.64;101556.06;687826;28;1320;-88
2023/12/27 00:33:55;;;;;;;3.95;2.50;;;;;;;7.53;54.70;101546.09;684729;28;1644;-87
2023/12/27 00:34:17;;;;;;;4.45;2.65;;;;;;;7.58;54.73;101555.03;682379;28;1158;-87
2023/12/27 00:34:38;;;;;;;4.35;2.67;;;;;;;7.60;54.21;101563.78;682532;28;863;-87
2023/12/27 00:34:59;;;;;;;5.57;2.70;;;;;;;7.56;54.82;101556.66;684653;28;1526;-87
2023/12/27 00:35:19;;;;;;;4.32;2.50;;;;;;;7.54;54.59;101558.25;690547;28;1077;-87
2023/12/27 00:35:40;;;;;;;4.83;2.50;;;;;;;7.60;54.62;101568.06;690482;28;1119;-87
2023/12/27 00:36:01;;;;;;;4.03;2.53;;;;;;;7.57;54.71;101568.81;687941;28;1535;-88
2023/12/27 00:36:28;;;;;;;3.67;2.43;;;;;;;7.53;54.84;101565.16;685534;28;1104;-88
2023/12/27 00:36:48;;;;;;;10.27;2.50;;;;;;;7.56;54.61;101567.03;687484;28;1592;-87
2023/12/27 00:37:10;;;;;;;10.30;2.58;;;;;;;7.55;54.49;101562.63;688445;28;1459;-88
2023/12/27 00:37:31;;;;;;;11.23;2.93;;;;;;;7.57;54.60;101568.81;684249;29;982;-88
2023/12/27 00:37:53;;;;;;;5.03;3.00;;;;;;;7.62;54.46;101577.72;686445;28;1733;-88
2023/12/27 00:38:13;;;;;;;6.80;3.17;;;;;;;7.54;54.78;101558.25;685132;28;1684;-86
2023/12/27 00:38:35;;;;;;;6.15;3.08;;;;;;;7.59;54.51;101566.28;689096;28;922;-87
2023/12/27 00:38:59;;;;;;;5.10;2.85;;;;;;;7.57;54.79;101563.63;686403;28;1527;-89
2023/12/27 00:39:23;;;;;;;3.10;2.40;;;;;;;7.63;54.58;101574.31;687731;28;1200;-88
2023/12/27 00:39:46;;;;;;;2.22;2.00;;;;;;;7.62;54.74;101569.06;689190;28;1572;-87
2023/12/27 00:40:07;;;;;;;2.47;1.98;;;;;;;7.61;54.55;101565.56;688833;28;1794;-87
2023/12/27 00:40:28;;;;;;;3.42;2.38;;;;;;;7.59;54.60;101556.81;688741;28;1749;-87
2023/12/27 00:40:49;;;;;;;3.33;2.50;;;;;;;7.60;54.40;101561.19;687266;28;1442;-88
2023/12/27 00:41:09;;;;;;;5.68;2.50;;;;;;;7.64;54.36;101565.75;691822;28;1332;-87
2023/12/27 00:41:30;;;;;;;5.68;2.33;;;;;;;7.64;54.32;101565.75;690789;28;1856;-87
2023/12/27 00:41:51;;;;;;;5.45;2.20;;;;;;;7.59;54.33;101550.69;687070;28;1623;-88
2023/12/27 00:42:11;;;;;;;3.53;2.50;;;;;;;7.61;54.37;101555.16;688862;28;1130;-87
2023/12/27 00:42:33;;;;;;;3.33;2.55;;;;;;;7.71;54.67;101579.03;689348;28;1518;-87
2023/12/27 00:42:55;;;;;;;5.47;2.90;;;;;;;7.62;54.29;101559.56;690168;28;1445;-88
2023/12/27 00:43:16;;;;;;;5.43;2.92;;;;;;;7.63;54.35;101553.53;690660;28;1358;-87
2023/12/27 00:43:36;;;;;;;5.63;3.10;;;;;;;7.61;54.53;101555.16;689037;28;1567;-88
2023/12/27 00:43:58;;;;;;;5.72;3.10;;;;;;;7.60;54.52;101550.78;689032;28;1595;-87
2023/12/27 00:44:19;;;;;;;6.30;3.00;;;;;;;7.58;54.06;101547.22;689244;28;972;-89
2023/12/27 00:44:40;;;;;;;4.88;2.90;;;;;;;7.64;54.58;101560.56;686394;28;1611;-88
2023/12/27 00:45:00;;;;;;;5.32;3.10;;;;;;;7.72;54.19;101565.22;687565;28;1486;-88
2023/12/27 00:45:24;;;;;;;4.80;3.20;;;;;;;7.62;54.77;101554.34;694522;28;1390;-88
2023/12/27 00:45:45;;;;;;;4.20;2.67;;;;;;;7.68;54.44;101559.88;691478;28;1529;-87
2023/12/27 00:46:06;;;;;;;2.97;2.17;;;;;;;7.74;54.71;101567.09;686386;28;1141;-88
2023/12/27 00:46:27;;;;;;;3.30;2.20;;;;;;;7.73;54.54;101569.63;691776;28;1326;-87
2023/12/27 00:46:47;;;;;;;4.53;2.45;;;;;;;7.75;54.65;101574.06;685540;28;1598;-87
2023/12/27 00:47:08;;;;;;;5.82;2.88;;;;;;;7.58;54.53;101549.81;686275;28;1120;-86
2023/12/27 00:47:29;;;;;;;5.28;2.75;;;;;;;7.57;54.61;101553.25;694136;28;1914;-87
2023/12/27 00:47:52;;;;;;;5.57;3.00;;;;;;;7.55;54.67;101539.25;688886;28;1525;-88
2023/12/27 00:48:13;;;;;;;4.57;2.90;;;;;;;7.54;54.72;101547.88;688514;28;1129;-87
2023/12/27 00:48:39;;;;;;;4.10;2.60;;;;;;;7.54;54.67;101543.56;690663;28;1263;-88
2023/12/27 00:49:00;;;;;;;2.80;2.30;;;;;;;7.57;54.81;101547.13;688221;28;1482;-88
2023/12/27 00:49:21;;;;;;;3.25;2.70;;;;;;;7.56;55.18;101546.25;688398;28;1100;-87
2023/12/27 00:49:43;;;;;;;4.60;3.10;;;;;;;7.57;54.82;101552.34;688359;28;1592;-87
2023/12/27 00:50:04;;;;;;;7.80;3.35;;;;;;;7.49;55.02;101546.75;685596;28;1112;-87
2023/12/27 00:50:25;;;;;;;7.35;3.15;;;;;;;7.47;55.44;101545.75;688495;28;1201;-87
2023/12/27 00:50:45;;;;;;;6.35;2.85;;;;;;;7.48;54.71;101543.25;688254;28;1788;-87
2023/12/27 00:51:06;;;;;;;5.68;2.53;;;;;;;7.49;55.05;101554.53;688473;28;1288;-86
2023/12/27 00:51:27;;;;;;;5.80;2.53;;;;;;;7.46;55.27;101546.56;685876;28;1219;-87
2023/12/27 00:51:48;;;;;;;5.75;2.75;;;;;;;7.47;55.18;101550.94;690877;28;1445;-87
2023/12/27 00:52:10;;;;;;;3.60;2.70;;;;;;;7.40;54.97;101540.25;688498;28;1079;-87
2023/12/27 00:52:31;;;;;;;4.72;2.95;;;;;;;7.52;54.88;101560.78;690828;28;836;-87
2023/12/27 00:52:52;;;;;;;5.10;3.17;;;;;;;7.49;55.08;101545.03;685525;28;1219;-87
2023/12/27 00:53:13;;;;;;;5.25;3.33;;;;;;;7.48;54.97;101550.13;686491;28;1215;-87
2023/12/27 00:53:33;;;;;;;5.50;3.38;;;;;;;7.46;55.07;101550.06;683145;29;1406;-87
2023/12/27 00:53:54;;;;;;;7.57;3.10;;;;;;;7.50;55.20;101562.38;688330;28;1283;-87
2023/12/27 00:54:16;;;;;;;8.40;2.83;;;;;;;7.48;54.85;101552.72;688302;28;1391;-88
2023/12/27 00:54:37;;;;;;;6.05;2.40;;;;;;;7.45;55.10;101552.56;691205;28;1291;-88
2023/12/27 00:54:57;;;;;;;3.92;2.55;;;;;;;7.45;55.07;101557.78;687471;28;1303;-87
2023/12/27 00:55:18;;;;;;;3.95;2.85;;;;;;;7.40;55.16;101542.84;690501;28;1204;-87
2023/12/27 00:55:38;;;;;;;5.17;3.23;;;;;;;7.48;55.26;101566.63;688565;28;844;-87
2023/12/27 00:55:59;;;;;;;4.75;3.28;;;;;;;7.42;55.41;101553.28;687944;28;1133;-87
2023/12/27 00:56:20;;;;;;;4.30;2.88;;;;;;;7.44;55.04;101558.59;693861;28;1204;-88
2023/12/27 00:56:41;;;;;;;3.83;2.75;;;;;;;7.44;55.38;101561.19;688556;28;822;-87
2023/12/27 00:57:01;;;;;;;4.27;2.90;;;;;;;7.33;55.33;101540.72;685190;28;1249;-87
2023/12/27 00:57:22;;;;;;;4.70;3.28;;;;;;;7.38;55.03;101546.16;685492;28;1252;-86
2023/12/27 00:57:42;;;;;;;4.82;3.10;;;;;;;7.47;55.12;101566.53;685706;28;1146;-87
2023/12/27 00:58:03;;;;;;;11.93;3.40;;;;;;;7.39;55.13;101553.16;689890;28;1237;-88
2023/12/27 00:58:23;;;;;;;12.23;3.42;;;;;;;7.35;55.07;101541.69;688402;28;795;-87
2023/12/27 00:58:44;;;;;;;12.60;3.67;;;;;;;7.41;55.13;101551.50;679407;28;1490;-87
2023/12/27 00:59:06;;;;;;;5.80;3.40;;;;;;;7.43;55.04;101559.41;687861;28;1265;-87
2023/12/27 00:59:27;;;;;;;5.97;3.40;;;;;;;7.39;55.00;101554.03;691145;28;764;-87
2023/12/27 00:59:48;;;;;;;5.65;3.40;;;;;;;7.39;55.47;101554.03;687080;28;1253;-87
2023/12/27 01:00:09;;;;;;;6.70;3.23;;;;;;;7.39;55.29;101554.03;691125;28;1060;-87
2023/12/27 01:00:30;;;;;;;5.10;2.97;;;;;;;7.40;55.13;101554.94;691113;28;1446;-87
2023/12/27 01:00:50;;;;;;;5.07;3.20;;;;;;;7.28;55.23;101539.59;688272;28;1263;-87
2023/12/27 01:01:11;;;;;;;4.40;3.20;;;;;;;7.32;55.55;101546.75;685295;28;1654;-87
2023/12/27 01:01:32;;;;;;;5.07;3.30;;;;;;;7.38;55.17;101562.63;685766;28;1260;-87
2023/12/27 01:01:53;;;;;;;3.77;3.03;;;;;;;7.37;55.22;101553.06;685088;28;1678;-87
2023/12/27 01:02:16;;;;;;;3.65;3.13;;;;;;;7.32;54.99;101551.94;682552;28;1256;-87
2023/12/27 01:02:37;;;;;;;3.30;2.95;;;;;;;7.35;54.88;101551.19;691034;28;869;-87
2023/12/27 01:02:57;;;;;;;5.18;3.00;;;;;;;7.29;55.40;101546.56;696220;28;1280;-86
2023/12/27 01:03:18;;;;;;;5.63;3.15;;;;;;;7.27;55.37;101548.19;688244;28;1197;-87
2023/12/27 01:03:42;;;;;;;5.37;3.40;;;;;;;7.33;55.35;101552.81;688396;28;1296;-88
2023/12/27 01:04:03;;;;;;;4.30;3.45;;;;;;;7.21;55.35;101530.59;688249;28;1189;-87
2023/12/27 01:04:24;;;;;;;5.77;3.57;;;;;;;7.29;55.52;101554.34;689935;28;1900;-87
2023/12/27 01:04:45;;;;;;;7.07;3.97;;;;;;;7.22;55.14;101539.25;693511;28;1228;-87
2023/12/27 01:05:07;;;;;;;7.18;3.65;;;;;;;7.23;55.48;101541.03;696377;28;1264;-87
2023/12/27 01:05:28;;;;;;;6.22;3.72;;;;;;;7.26;55.16;101546.41;693713;28;1448;-87
2023/12/27 01:05:49;;;;;;;5.15;3.60;;;;;;;7.30;55.17;101550.94;688069;28;1310;-87
2023/12/27 01:06:10;;;;;;;7.00;3.70;;;;;;;7.19;55.59;101534.78;690791;28;1264;-87
2023/12/27 01:06:31;;;;;;;7.05;3.22;;;;;;;7.24;55.11;101550.59;691079;28;771;-87
2023/12/27 01:06:51;;;;;;;6.13;2.80;;;;;;;7.19;55.35;101542.56;688580;28;1281;-87
2023/12/27 01:07:13;;;;;;;5.10;2.70;;;;;;;7.19;55.74;101544.28;685629;28;1113;-87
2023/12/27 01:07:34;;;;;;;5.72;2.90;;;;;;;7.23;55.16;101551.41;683169;28;1255;-87
2023/12/27 01:07:55;;;;;;;5.97;3.13;;;;;;;7.18;55.17;101547.69;689529;28;1223;-87
2023/12/27 01:08:16;;;;;;;5.20;3.13;;;;;;;7.19;55.05;101559.84;690634;28;1325;-87
2023/12/27 01:08:37;;;;;;;4.88;3.25;;;;;;;7.19;55.65;101544.28;688435;28;1191;-87
2023/12/27 01:08:57;;;;;;;6.70;3.42;;;;;;;7.15;55.30;101548.41;690079;28;1254;-87
2023/12/27 01:09:18;;;;;;;7.72;3.40;;;;;;;7.11;55.16;101547.34;690139;28;1143;-88
2023/12/27 01:09:38;;;;;;;6.43;3.25;;;;;;;7.16;55.30;101546.69;685765;28;803;-87
2023/12/27 01:09:59;;;;;;;6.60;3.10;;;;;;;7.08;55.20;101531.63;688218;28;1241;-87
2023/12/27 01:10:20;;;;;;;5.80;3.00;;;;;;;7.08;55.66;101538.50;691061;28;1326;-87
2023/12/27 01:10:40;;;;;;;5.60;3.00;;;;;;;7.07;55.77;101545.38;696421;28;1115;-87
2023/12/27 01:11:01;;;;;;;5.20;3.17;;;;;;;7.10;55.56;101550.75;693424;28;1246;-87
2023/12/27 01:11:22;;;;;;;6.35;3.40;;;;;;;7.06;55.56;101548.78;693882;28;1209;-87
2023/12/27 01:11:42;;;;;;;6.63;3.45;;;;;;;7.10;55.68;101555.03;693776;28;1179;-88
2023/12/27 01:12:03;;;;;;;5.40;3.20;;;;;;;7.04;55.46;101544.31;688087;28;1154;-88
2023/12/27 01:12:24;;;;;;;4.68;3.08;;;;;;;7.02;55.56;101549.44;685339;28;1157;-87
2023/12/27 01:12:44;;;;;;;5.68;3.10;;;;;;;7.01;55.40;101538.97;688392;28;1248;-87
2023/12/27 01:13:17;;;;;;;7.25;3.30;;;;;;;7.01;55.65;101550.25;688444;28;740;-87
2023/12/27 01:13:38;;;;;;;5.70;3.13;;;;;;;7.06;55.42;101564.38;688223;28;1602;-87
2023/12/27 01:13:59;;;;;;;5.20;3.30;;;;;;;6.98;55.77;101544.88;690329;28;1313;-86
2023/12/27 01:14:21;;;;;;;4.82;2.88;;;;;;;6.97;55.36;101543.09;693831;28;1284;-87
2023/12/27 01:14:42;;;;;;;7.88;2.92;;;;;;;7.04;55.53;101560.78;688445;28;843;-88
2023/12/27 01:15:03;;;;;;;9.52;2.70;;;;;;;7.00;55.47;101553.63;688003;28;1108;-87
2023/12/27 01:15:24;;;;;;;9.70;3.00;;;;;;;7.07;55.22;101568.75;688400;28;826;-87
2023/12/27 01:15:46;;;;;;;8.15;3.17;;;;;;;6.91;55.65;101537.56;682954;28;1471;-87
2023/12/27 01:16:07;;;;;;;4.80;3.28;;;;;;;6.97;55.64;101548.28;687511;28;1196;-87
2023/12/27 01:16:28;;;;;;;5.90;3.23;;;;;;;6.95;55.52;101555.09;691217;28;694;-87
2023/12/27 01:16:49;;;;;;;4.50;3.13;;;;;;;7.03;55.58;101564.22;693544;28;1198;-86
2023/12/27 01:17:10;;;;;;;5.25;3.30;;;;;;;6.90;55.69;101536.69;690828;28;1106;-87
2023/12/27 01:17:32;;;;;;;4.97;3.30;;;;;;;6.96;55.63;101552.59;691127;28;1302;-87
2023/12/27 01:17:54;;;;;;;6.30;3.00;;;;;;;6.90;55.94;101546.16;692399;28;1176;-88
2023/12/27 01:18:15;;;;;;;6.38;3.08;;;;;;;6.89;55.67;101541.78;691255;28;1621;-87
2023/12/27 01:18:35;;;;;;;4.73;3.30;;;;;;;6.90;55.52;101551.34;688418;28;788;-87
2023/12/27 01:18:56;;;;;;;6.10;3.63;;;;;;;6.89;56.03;101544.38;688221;28;1122;-87
2023/12/27 01:19:17;;;;;;;6.22;3.50;;;;;;;6.82;55.59;101535.38;690416;28;1582;-87
2023/12/27 01:19:39;;;;;;;5.60;3.20;;;;;;;6.93;55.66;101556.72;691231;28;973;-86
2023/12/27 01:19:59;;;;;;;4.25;3.00;;;;;;;6.97;55.90;101558.66;691265;28;1193;-87
2023/12/27 01:20:20;;;;;;;4.10;2.93;;;;;;;6.81;55.74;101536.19;691875;28;1193;-86
2023/12/27 01:20:41;;;;;;;4.35;3.30;;;;;;;6.80;55.85;101539.56;691134;28;830;-87
2023/12/27 01:21:01;;;;;;;6.78;3.40;;;;;;;6.82;55.90;101544.03;690784;28;1249;-87
2023/12/27 01:21:22;;;;;;;9.57;3.72;;;;;;;6.77;55.91;101537.72;693111;28;1433;-89
2023/12/27 01:21:43;;;;;;;9.43;3.50;;;;;;;6.76;55.56;101540.22;690925;28;1626;-86
2023/12/27 01:22:05;;;;;;;6.55;3.10;;;;;;;6.77;55.81;101542.91;687926;28;1117;-87
2023/12/27 01:22:25;;;;;;;4.80;3.00;;;;;;;6.75;55.80;101541.88;695825;28;1110;-87
2023/12/27 01:22:47;;;;;;;4.90;3.00;;;;;;;6.78;56.06;101539.50;696335;28;1199;-86
2023/12/27 01:23:08;;;;;;;5.07;3.20;;;;;;;6.74;55.73;101547.91;693030;28;1358;-87
2023/12/27 01:23:29;;;;;;;4.88;3.15;;;;;;;6.74;55.88;101545.31;686633;28;1433;-87
2023/12/27 01:23:49;;;;;;;5.20;3.30;;;;;;;6.74;55.92;101545.31;684037;28;1213;-86
2023/12/27 01:24:11;;;;;;;6.70;3.80;;;;;;;6.72;55.63;101546.91;690764;28;1087;-86
2023/12/27 01:24:31;;;;;;;6.35;3.63;;;;;;;6.73;55.68;101550.44;688466;28;1594;-86
2023/12/27 01:24:52;;;;;;;13.27;3.50;;;;;;;6.77;56.32;101560.16;688922;28;1038;-87
2023/12/27 01:25:13;;;;;;;12.90;3.20;;;;;;;6.68;55.41;101547.50;693536;28;1253;-87
2023/12/27 01:25:34;;;;;;;13.18;3.42;;;;;;;6.67;55.49;101554.41;695968;28;1347;-88
2023/12/27 01:25:54;;;;;;;6.80;3.50;;;;;;;6.63;55.63;101543.78;693225;28;1164;-87
2023/12/27 01:26:15;;;;;;;7.30;3.95;;;;;;;6.66;55.94;101556.91;688858;28;1117;-88
2023/12/27 01:26:36;;;;;;;8.23;4.05;;;;;;;6.61;55.78;101537.59;686866;28;1117;-87
2023/12/27 01:26:56;;;;;;;8.10;4.40;;;;;;;6.59;55.89;101534.94;687352;28;1533;-87
2023/12/27 01:27:17;;;;;;;8.48;4.57;;;;;;;6.69;55.79;101562.28;686649;28;1973;-87
2023/12/27 01:27:38;;;;;;;9.18;4.35;;;;;;;6.67;55.73;101553.50;687507;28;1764;-87
2023/12/27 01:27:58;;;;;;;8.07;3.80;;;;;;;6.63;56.01;101547.25;688171;28;1590;-87
2023/12/27 01:28:19;;;;;;;7.13;3.50;;;;;;;6.66;55.99;101551.72;685532;28;1088;-87
2023/12/27 01:28:39;;;;;;;6.50;3.75;;;;;;;6.66;55.62;101554.31;686312;28;1242;-87
2023/12/27 01:29:00;;;;;;;7.67;4.00;;;;;;;6.55;55.80;101538.16;690626;28;1563;-87
2023/12/27 01:29:20;;;;;;;9.02;3.80;;;;;;;6.60;55.77;101547.09;688360;28;1163;-87
2023/12/27 01:29:41;;;;;;;7.28;3.63;;;;;;;6.56;56.29;101546.03;687616;28;1469;-88
2023/12/27 01:30:03;;;;;;;6.57;3.60;;;;;;;6.53;55.94;101542.34;685263;28;1265;-87
2023/12/27 01:30:24;;;;;;;6.10;3.75;;;;;;;6.52;55.97;101540.56;684653;28;1261;-87
2023/12/27 01:30:45;;;;;;;7.23;4.10;;;;;;;6.48;56.13;101536.91;682731;28;1242;-87
2023/12/27 01:31:05;;;;;;;8.05;4.20;;;;;;;6.51;56.00;101542.25;686984;28;1280;-87
2023/12/27 01:31:26;;;;;;;5.75;3.75;;;;;;;6.42;56.24;101537.47;690982;28;1228;-87
2023/12/27 01:31:46;;;;;;;6.03;3.90;;;;;;;6.53;55.61;101556.22;689122;28;1697;-87
2023/12/27 01:32:07;;;;;;;6.57;4.15;;;;;;;6.50;56.14;101548.25;686816;28;1263;-87
2023/12/27 01:32:28;;;;;;;6.75;4.20;;;;;;;6.48;56.03;101552.47;688036;28;804;-87
2023/12/27 01:32:49;;;;;;;9.02;4.20;;;;;;;6.51;55.84;101546.56;685455;28;1216;-86
2023/12/27 01:33:10;;;;;;;10.82;4.32;;;;;;;6.48;56.12;101547.28;688014;28;1173;-87
2023/12/27 01:33:32;;;;;;;10.32;4.68;;;;;;;6.46;56.11;101538.53;688365;28;1345;-87
2023/12/27 01:33:52;;;;;;;10.95;4.57;;;;;;;6.56;55.84;101556.41;687991;28;1427;-87
2023/12/27 01:34:13;;;;;;;9.03;4.70;;;;;;;6.50;56.04;101548.25;685266;28;1327;-87
2023/12/27 01:34:37;;;;;;;9.80;4.80;;;;;;;6.49;55.76;101542.97;689341;28;1206;-87
2023/12/27 01:34:57;;;;;;;10.10;5.13;;;;;;;6.46;55.87;101532.44;686223;28;1235;-86
2023/12/27 01:35:18;;;;;;;10.98;5.50;;;;;;;6.46;56.02;101533.34;688175;28;1165;-87
2023/12/27 01:35:40;;;;;;;11.75;5.75;;;;;;;6.58;55.71;101554.78;688262;28;806;-87
2023/12/27 01:36:08;;;;;;;14.88;6.40;;;;;;;6.55;55.58;101558.88;690383;28;1165;-87
2023/12/27 01:36:28;;;;;;;16.85;6.57;;;;;;;6.50;55.73;101548.25;688208;28;1249;-87
2023/12/27 01:36:49;;;;;;;15.53;6.70;;;;;;;6.49;55.86;101548.16;690882;28;978;-87
2023/12/27 01:37:11;;;;;;;11.52;6.38;;;;;;;6.53;55.45;101555.31;691234;28;1373;-87
2023/12/27 01:37:32;;;;;;;13.75;6.20;;;;;;;6.45;55.91;101536.75;690945;28;1288;-87
2023/12/27 01:37:53;;;;;;;14.40;6.40;;;;;;;6.43;55.73;101533.16;690883;28;1135;-87
2023/12/27 01:38:14;;;;;;;16.33;6.88;;;;;;;6.48;55.85;101547.28;685471;28;1076;-87
2023/12/27 01:38:40;;;;;;;15.50;6.95;;;;;;;6.46;55.49;101540.22;685538;28;890;-88
2023/12/27 01:39:00;;;;;;;13.27;6.55;;;;;;;6.48;55.98;101544.69;685387;28;1229;-87
2023/12/27 01:39:22;;;;;;;12.98;6.55;;;;;;;6.42;55.65;101533.97;687656;28;1327;-87
2023/12/27 01:39:43;;;;;;;16.60;6.68;;;;;;;6.42;55.77;101537.47;688375;28;807;-87
2023/12/27 01:40:04;;;;;;;16.53;6.20;;;;;;;6.47;55.68;101545.50;688002;28;1134;-87
2023/12/27 01:40:25;;;;;;;18.30;6.53;;;;;;;6.50;55.79;101556.03;688268;28;1331;-87
2023/12/27 01:40:49;;;;;;;16.23;6.30;;;;;;;6.44;55.69;101546.22;688077;28;1161;-87
2023/12/27 01:41:10;;;;;;;15.25;6.47;;;;;;;6.42;55.90;101541.75;692067;28;1297;-87
2023/12/27 01:41:32;;;;;;;11.57;6.32;;;;;;;6.42;55.64;101553.03;685658;28;1146;-87
2023/12/27 01:41:52;;;;;;;12.20;6.50;;;;;;;6.40;55.92;101543.34;687895;28;1042;-87
2023/12/27 01:42:13;;;;;;;22.50;6.73;;;;;;;6.43;55.83;101549.63;685460;28;1186;-87